Time;durP1;ratioP1;P1;durP2;ratioP2;P2;SDS_P1;SDS_P2;PMS_P1;PMS_P2;Temp;Humidity;BMP_temperature;BMP_pressure;BME280_temperature;BME280_humidity;BME280_pressure;Samples;Min_cycle;Max_cycle;Signal;HPM_P1;HPM_P2
2021/12/23 00:01:58;;;;;;;42.75;19.10;;;;;;;-1.50;100.00;101407.53;4996744;28;20037;-77
2021/12/23 00:04:23;;;;;;;44.33;20.75;;;;;;;-1.50;100.00;101402.19;5000237;28;20069;-77
2021/12/23 00:06:49;;;;;;;45.33;20.30;;;;;;;-1.52;100.00;101393.28;5004405;28;20121;-77
2021/12/23 00:09:14;;;;;;;44.70;19.85;;;;;;;-1.58;100.00;101389.81;4999071;28;20057;-77
2021/12/23 00:11:40;;;;;;;39.30;19.73;;;;;;;-1.52;100.00;101387.91;5007768;28;20513;-77
2021/12/23 00:14:08;;;;;;;41.67;18.73;;;;;;;-1.51;100.00;101386.09;5007856;28;20117;-77
2021/12/23 00:16:43;;;;;;;50.15;18.98;;;;;;;-1.51;100.00;101388.78;5012742;28;20205;-77
2021/12/23 00:19:58;;;;;;;46.45;18.95;;;;;;;-1.52;100.00;101390.59;4984749;28;20378;-77
2021/12/23 00:24:50;;;;;;;45.42;18.63;;;;;;;-1.56;100.00;101372.78;5015411;28;20054;-78
2021/12/23 00:27:15;;;;;;;45.70;19.27;;;;;;;-1.53;100.00;101369.13;5007849;28;20037;-78
2021/12/23 00:29:41;;;;;;;42.60;19.75;;;;;;;-1.58;100.00;101368.34;5008937;28;20050;-78
2021/12/23 00:32:08;;;;;;;45.65;19.33;;;;;;;-1.58;100.00;101353.13;5003477;28;20038;-78
2021/12/23 00:34:36;;;;;;;47.42;19.13;;;;;;;-1.61;100.00;101353.19;5010038;28;20041;-78
2021/12/23 00:37:03;;;;;;;40.22;18.63;;;;;;;-1.58;100.00;101337.00;5013951;28;20073;-78
2021/12/23 00:39:29;;;;;;;46.45;19.83;;;;;;;-1.58;100.00;101338.81;5009758;28;20492;-78
2021/12/23 00:42:05;;;;;;;47.05;20.40;;;;;;;-1.58;100.00;101331.63;5005145;28;20042;-77
2021/12/23 00:44:31;;;;;;;43.08;19.75;;;;;;;-1.59;100.00;101337.94;5028492;28;20033;-78
2021/12/23 00:46:56;;;;;;;42.50;19.73;;;;;;;-1.57;100.00;101333.41;5019503;28;20053;-78
2021/12/23 00:49:22;;;;;;;45.90;18.85;;;;;;;-1.61;100.00;101334.38;5003374;28;20040;-78
2021/12/23 00:51:47;;;;;;;47.33;19.23;;;;;;;-1.63;100.00;101320.13;4998521;28;20053;-78
2021/12/23 00:54:12;;;;;;;47.53;20.52;;;;;;;-1.65;100.00;101318.41;5014042;28;20060;-78
2021/12/23 00:56:38;;;;;;;41.13;18.30;;;;;;;-1.64;100.00;101307.63;5013619;28;20052;-78
2021/12/23 00:59:07;;;;;;;43.25;19.80;;;;;;;-1.59;100.00;101311.09;5012902;28;20088;-77
2021/12/23 01:01:33;;;;;;;58.03;21.98;;;;;;;-1.66;100.00;101298.72;4998278;28;20092;-78
2021/12/23 01:03:59;;;;;;;49.72;19.65;;;;;;;-1.63;100.00;101311.19;4995467;28;20038;-77
2021/12/23 01:06:25;;;;;;;47.08;21.73;;;;;;;-1.63;100.00;101322.81;4994295;28;20041;-78
2021/12/23 01:08:51;;;;;;;46.95;19.95;;;;;;;-1.66;100.00;101314.81;4998229;28;20038;-77
2021/12/23 01:11:17;;;;;;;49.50;21.02;;;;;;;-1.73;100.00;101303.31;5018985;28;20115;-77
2021/12/23 01:13:58;;;;;;;43.30;20.85;;;;;;;-1.67;100.00;101297.84;4994779;28;20061;-77
2021/12/23 01:16:36;;;;;;;44.90;20.48;;;;;;;-1.68;100.00;101292.50;5001985;28;20026;-77
2021/12/23 01:19:03;;;;;;;46.28;21.30;;;;;;;-1.71;100.00;101295.25;4994592;28;20105;-77
2021/12/23 01:21:28;;;;;;;45.55;19.52;;;;;;;-1.71;100.00;101305.97;5006934;28;20164;-77
2021/12/23 01:23:56;;;;;;;56.17;20.35;;;;;;;-1.75;100.00;101305.16;5008075;28;20089;-78
2021/12/23 01:26:23;;;;;;;52.85;22.25;;;;;;;-1.74;100.00;101301.56;5005987;28;20034;-78
2021/12/23 01:28:59;;;;;;;50.13;20.85;;;;;;;-1.74;100.00;101308.72;4999526;28;20125;-77
2021/12/23 01:31:27;;;;;;;53.53;21.33;;;;;;;-1.78;100.00;101301.66;5010677;28;20030;-77
2021/12/23 01:33:52;;;;;;;55.45;20.88;;;;;;;-1.82;100.00;101303.53;5001145;28;20038;-77
2021/12/23 01:36:18;;;;;;;47.92;21.08;;;;;;;-1.73;100.00;101308.69;4997853;28;20464;-77
2021/12/23 01:38:44;;;;;;;49.35;20.98;;;;;;;-1.72;100.00;101315.84;5005064;28;20057;-78
2021/12/23 01:41:10;;;;;;;44.65;20.55;;;;;;;-1.73;100.00;101307.81;5005069;28;20030;-78
2021/12/23 01:43:36;;;;;;;55.05;22.85;;;;;;;-1.75;100.00;101306.97;5003513;28;20061;-78
2021/12/23 01:46:03;;;;;;;54.42;22.08;;;;;;;-1.62;100.00;101329.03;5004875;28;20089;-78
2021/12/23 01:48:28;;;;;;;47.67;21.00;;;;;;;-1.67;100.00;101313.06;4996331;28;20034;-78
2021/12/23 01:50:54;;;;;;;54.45;21.13;;;;;;;-1.62;100.00;101312.94;5021171;28;20109;-78
2021/12/23 01:53:19;;;;;;;45.88;20.13;;;;;;;-1.62;100.00;101304.88;5019862;28;20038;-78
2021/12/23 01:55:46;;;;;;;55.70;21.85;;;;;;;-1.62;100.00;101308.47;5019591;28;20033;-78
2021/12/23 01:58:13;;;;;;;51.65;21.30;;;;;;;-1.62;100.00;101304.88;5017633;28;20044;-78
2021/12/23 02:00:43;;;;;;;48.95;20.77;;;;;;;-1.62;100.00;101303.09;5024626;28;20034;-78
2021/12/23 02:03:10;;;;;;;49.55;21.30;;;;;;;-1.67;100.00;101295.16;5010841;28;20114;-78
2021/12/23 02:05:36;;;;;;;49.40;21.75;;;;;;;-1.58;100.00;101303.91;5008878;28;20029;-77
2021/12/23 02:08:01;;;;;;;55.83;21.00;;;;;;;-1.62;100.00;101296.84;5004220;28;20065;-78
2021/12/23 02:10:28;;;;;;;47.33;20.30;;;;;;;-1.69;100.00;101288.03;5001831;28;20038;-77
2021/12/23 02:12:54;;;;;;;49.88;21.23;;;;;;;-1.70;100.00;101273.72;5000433;28;20041;-77
2021/12/23 02:15:20;;;;;;;42.47;20.13;;;;;;;-1.65;100.00;101267.41;5009081;28;20034;-77
2021/12/23 02:17:47;;;;;;;52.58;21.80;;;;;;;-1.66;100.00;101263.81;4996309;28;20037;-77
2021/12/23 02:20:16;;;;;;;51.70;20.65;;;;;;;-1.68;100.00;101254.91;5017636;28;20121;-78
2021/12/23 02:22:43;;;;;;;48.42;20.45;;;;;;;-1.63;100.00;101252.13;5010277;28;20026;-78
2021/12/23 02:25:10;;;;;;;49.65;20.10;;;;;;;-1.59;100.00;101249.34;5013323;28;20034;-78
2021/12/23 02:27:36;;;;;;;46.92;20.55;;;;;;;-1.66;100.00;101242.34;5019767;28;20117;-78
2021/12/23 02:30:05;;;;;;;59.53;23.20;;;;;;;-1.65;100.00;101246.78;5032224;28;20065;-78
2021/12/23 02:32:30;;;;;;;52.50;20.80;;;;;;;-1.67;100.00;101256.69;5022723;28;20026;-78
2021/12/23 02:34:56;;;;;;;50.88;19.23;;;;;;;-1.72;100.00;101248.72;5009407;28;20457;-78
2021/12/23 02:37:21;;;;;;;47.65;19.65;;;;;;;-1.80;100.00;101233.69;5013870;28;20037;-78
2021/12/23 02:39:47;;;;;;;50.03;20.77;;;;;;;-1.79;100.00;101235.47;5004454;28;20027;-78
2021/12/23 02:42:13;;;;;;;49.58;21.70;;;;;;;-1.87;100.00;101220.44;5015761;28;20046;-78
2021/12/23 02:44:38;;;;;;;43.30;19.30;;;;;;;-1.80;100.00;101220.28;5005684;28;20037;-78
2021/12/23 02:47:04;;;;;;;49.50;19.98;;;;;;;-1.87;100.00;101212.38;5003331;28;20026;-77
2021/12/23 02:49:29;;;;;;;46.17;19.05;;;;;;;-1.77;100.00;101231.84;4996924;28;20462;-78
2021/12/23 02:51:55;;;;;;;48.42;20.50;;;;;;;-1.79;100.00;101222.94;5002234;28;20030;-78
2021/12/23 02:54:20;;;;;;;51.80;21.35;;;;;;;-1.75;100.00;101232.69;5013037;28;20048;-78
2021/12/23 02:56:46;;;;;;;52.33;23.13;;;;;;;-1.76;100.00;101222.88;5023341;28;20393;-78
2021/12/23 02:59:11;;;;;;;50.90;22.58;;;;;;;-1.78;100.00;101229.19;5020326;28;20090;-78
2021/12/23 03:01:37;;;;;;;56.65;25.33;;;;;;;-1.79;100.00;101220.25;5017955;28;20101;-78
2021/12/23 03:04:03;;;;;;;58.13;25.92;;;;;;;-1.77;100.00;101220.22;5005790;28;20042;-78
2021/12/23 03:06:28;;;;;;;56.75;24.08;;;;;;;-1.82;100.00;101219.44;5006693;28;20046;-78
2021/12/23 03:08:57;;;;;;;58.10;26.65;;;;;;;-1.82;100.00;101214.97;5033560;28;20445;-77
2021/12/23 03:11:24;;;;;;;59.72;27.42;;;;;;;-1.82;100.00;101209.59;5012442;28;20050;-77
2021/12/23 03:13:50;;;;;;;57.13;27.05;;;;;;;-1.85;100.00;101218.59;5012734;28;20051;-77
2021/12/23 03:16:24;;;;;;;61.63;28.20;;;;;;;-1.93;100.00;101201.78;5016724;28;20409;-78
2021/12/23 03:18:50;;;;;;;56.88;26.73;;;;;;;-1.94;100.00;101197.31;5006450;28;20430;-78
2021/12/23 03:21:16;;;;;;;66.55;28.42;;;;;;;-2.03;100.00;101195.72;5021366;28;20146;-78
2021/12/23 03:23:42;;;;;;;62.00;28.58;;;;;;;-2.01;100.00;101193.00;5018293;28;20033;-78
2021/12/23 03:26:07;;;;;;;59.58;26.42;;;;;;;-2.07;100.00;101191.31;5000523;28;20037;-78
2021/12/23 03:28:33;;;;;;;58.72;25.15;;;;;;;-2.05;100.00;101193.97;4999678;28;20432;-77
2021/12/23 03:31:00;;;;;;;57.15;26.27;;;;;;;-2.10;100.00;101195.88;4996121;28;20041;-77
2021/12/23 03:33:26;;;;;;;57.22;25.08;;;;;;;-2.14;100.00;101195.06;5003662;28;20517;-77
2021/12/23 03:35:51;;;;;;;55.55;24.23;;;;;;;-2.12;100.00;101198.59;5002664;28;20030;-77
2021/12/23 03:38:18;;;;;;;55.78;24.52;;;;;;;-2.13;100.00;101186.13;5010389;28;20038;-77
2021/12/23 03:40:44;;;;;;;53.40;21.92;;;;;;;-2.14;100.00;101188.84;5000874;28;20462;-77
2021/12/23 03:43:12;;;;;;;66.80;24.83;;;;;;;-2.16;100.00;101180.81;5005590;28;20088;-77
2021/12/23 03:45:44;;;;;;;53.75;23.40;;;;;;;-2.22;100.00;101179.13;5010531;28;20485;-77
2021/12/23 03:48:12;;;;;;;55.22;23.33;;;;;;;-2.24;100.00;101178.28;5014388;28;20026;-77
2021/12/23 03:50:38;;;;;;;48.92;21.70;;;;;;;-2.20;100.00;101180.91;5010240;28;20034;-77
2021/12/23 03:53:03;;;;;;;57.67;23.13;;;;;;;-2.26;100.00;101172.06;5002224;28;20070;-77
2021/12/23 03:55:29;;;;;;;48.25;22.00;;;;;;;-2.26;100.00;101166.72;5000471;28;20040;-78
2021/12/23 03:57:54;;;;;;;50.08;23.95;;;;;;;-2.26;100.00;101164.03;5002721;28;20605;-77
2021/12/23 04:00:22;;;;;;;51.03;21.63;;;;;;;-2.33;100.00;101150.78;5008629;28;20042;-77
2021/12/23 04:02:48;;;;;;;48.30;22.13;;;;;;;-2.38;100.00;101141.94;4983662;28;20084;-77
2021/12/23 04:05:15;;;;;;;56.95;24.10;;;;;;;-2.40;100.00;101134.81;4998767;28;20137;-77
2021/12/23 04:07:42;;;;;;;49.17;21.75;;;;;;;-2.33;100.00;101132.88;4996604;28;20390;-77
2021/12/23 04:10:09;;;;;;;45.83;20.00;;;;;;;-2.36;100.00;101122.25;5013286;28;20109;-77
2021/12/23 04:12:35;;;;;;;52.53;22.35;;;;;;;-2.24;100.00;101105.00;5004164;28;20147;-77
2021/12/23 04:15:00;;;;;;;51.88;22.95;;;;;;;-2.19;100.00;101107.59;5008042;28;20038;-77
2021/12/23 04:17:26;;;;;;;50.80;21.40;;;;;;;-2.14;100.00;101125.34;5002302;28;20437;-77
2021/12/23 04:19:51;;;;;;;51.50;22.33;;;;;;;-2.10;100.00;101120.78;4992972;28;20052;-77
2021/12/23 04:22:17;;;;;;;45.83;20.50;;;;;;;-2.15;100.00;101117.31;5011786;28;20038;-77
2021/12/23 04:24:44;;;;;;;45.83;21.05;;;;;;;-2.09;100.00;101103.78;4989525;28;20386;-77
2021/12/23 04:27:09;;;;;;;43.92;20.83;;;;;;;-2.11;100.00;101085.03;5013118;28;20477;-77
2021/12/23 04:29:35;;;;;;;62.83;22.38;;;;;;;-2.09;100.00;101085.88;5003908;28;20054;-78
2021/12/23 04:32:01;;;;;;;45.65;20.83;;;;;;;-2.10;100.00;101089.50;4988089;28;20126;-78
2021/12/23 04:34:27;;;;;;;50.20;23.60;;;;;;;-2.06;100.00;101076.88;4999091;28;20038;-77
2021/12/23 04:36:53;;;;;;;48.50;21.63;;;;;;;-2.12;100.00;101071.66;4997076;28;20109;-78
2021/12/23 04:39:18;;;;;;;53.03;22.75;;;;;;;-2.17;100.00;101061.03;5005865;28;20113;-77
2021/12/23 04:41:44;;;;;;;52.10;22.45;;;;;;;-2.09;100.00;101064.41;5000839;28;20034;-78
2021/12/23 04:44:09;;;;;;;53.88;22.48;;;;;;;-1.95;100.00;101079.28;5003833;28;20046;-77
2021/12/23 04:46:35;;;;;;;50.88;23.02;;;;;;;-1.99;100.00;101066.88;5010078;28;20037;-77
2021/12/23 04:49:01;;;;;;;48.22;21.77;;;;;;;-2.03;100.00;101069.63;5006760;28;20100;-78
2021/12/23 04:51:26;;;;;;;53.05;21.08;;;;;;;-1.89;100.00;101098.81;4999743;28;20030;-78
2021/12/23 04:53:52;;;;;;;48.50;21.27;;;;;;;-1.82;100.00;101109.41;5006476;28;20034;-78
2021/12/23 04:56:18;;;;;;;51.90;21.80;;;;;;;-1.92;100.00;101098.91;4997057;28;20056;-78
2021/12/23 04:58:44;;;;;;;48.47;22.15;;;;;;;-1.97;100.00;101090.06;4999141;28;20057;-77
2021/12/23 05:01:21;;;;;;;48.30;21.50;;;;;;;-1.97;100.00;101070.41;4995504;28;20488;-78
2021/12/23 05:03:47;;;;;;;44.80;21.20;;;;;;;-2.04;100.00;101043.72;5002048;28;20048;-77
2021/12/23 05:06:16;;;;;;;52.67;22.25;;;;;;;-2.08;100.00;101038.50;5006596;28;20049;-78
2021/12/23 05:08:42;;;;;;;55.22;22.25;;;;;;;-2.01;100.00;101042.78;5014136;28;20045;-78
2021/12/23 05:11:08;;;;;;;52.88;22.60;;;;;;;-2.00;100.00;101044.56;5009157;28;20454;-78
2021/12/23 05:13:34;;;;;;;53.70;22.30;;;;;;;-1.98;100.00;101044.50;4998696;28;20037;-78
2021/12/23 05:15:59;;;;;;;48.38;22.02;;;;;;;-1.99;100.00;101034.69;5002903;28;20037;-77
2021/12/23 05:18:25;;;;;;;53.13;22.65;;;;;;;-1.96;100.00;101034.63;5004661;28;20034;-77
2021/12/23 05:20:51;;;;;;;54.20;22.88;;;;;;;-1.94;100.00;101030.97;4996157;28;20132;-78
2021/12/23 05:23:17;;;;;;;45.80;21.58;;;;;;;-1.90;100.00;101031.78;4991685;28;20034;-77
2021/12/23 05:25:42;;;;;;;54.72;23.15;;;;;;;-1.93;100.00;101022.00;5001022;28;20116;-78
2021/12/23 05:28:08;;;;;;;55.75;20.67;;;;;;;-1.87;100.00;101027.22;5004125;28;20409;-77
2021/12/23 05:30:34;;;;;;;54.72;22.10;;;;;;;-1.90;100.00;101019.25;4998373;28;20088;-77
2021/12/23 05:32:59;;;;;;;51.00;22.80;;;;;;;-1.88;100.00;101017.41;5015219;28;20132;-77
2021/12/23 05:35:25;;;;;;;52.90;22.23;;;;;;;-1.91;100.00;101016.59;4998998;28;20065;-77
2021/12/23 05:37:52;;;;;;;52.38;23.75;;;;;;;-1.80;100.00;101022.59;4997908;28;20030;-77
2021/12/23 05:40:21;;;;;;;51.35;22.45;;;;;;;-1.78;100.00;101014.50;5002192;28;20069;-77
2021/12/23 05:42:47;;;;;;;49.28;21.67;;;;;;;-1.75;100.00;101019.78;5005380;28;20042;-78
2021/12/23 05:45:14;;;;;;;50.08;22.02;;;;;;;-1.79;100.00;101016.28;5002779;28;20367;-77
2021/12/23 05:47:40;;;;;;;55.75;22.65;;;;;;;-1.78;100.00;101014.50;5003642;28;20044;-77
2021/12/23 05:50:07;;;;;;;53.38;22.30;;;;;;;-1.74;100.00;101022.44;5005242;28;20034;-77
2021/12/23 05:52:32;;;;;;;55.72;23.20;;;;;;;-1.69;100.00;101006.19;5002260;28;20045;-77
2021/12/23 05:55:01;;;;;;;53.75;23.15;;;;;;;-1.69;100.00;101006.19;4998969;28;20034;-78
2021/12/23 05:57:27;;;;;;;49.95;23.52;;;;;;;-1.71;100.00;101008.91;5001867;28;20483;-77
2021/12/23 05:59:52;;;;;;;53.58;23.45;;;;;;;-1.71;100.00;101006.22;4996752;28;20033;-78
2021/12/23 06:02:18;;;;;;;55.25;23.45;;;;;;;-1.75;100.00;100988.47;5006569;28;20044;-78
2021/12/23 06:04:44;;;;;;;54.03;23.02;;;;;;;-1.66;100.00;100992.69;4992643;28;20101;-78
2021/12/23 06:07:09;;;;;;;53.88;23.30;;;;;;;-1.66;100.00;100990.00;4985576;28;20030;-77
2021/12/23 06:09:35;;;;;;;53.17;23.05;;;;;;;-1.68;100.00;100979.31;4997707;28;20574;-77
2021/12/23 06:12:01;;;;;;;52.53;23.40;;;;;;;-1.65;100.00;100988.22;4997594;28;20510;-77
2021/12/23 06:14:26;;;;;;;54.53;23.10;;;;;;;-1.59;100.00;100982.69;5010823;28;20069;-77
2021/12/23 06:16:51;;;;;;;52.35;23.85;;;;;;;-1.62;100.00;100991.72;5006534;28;20457;-78
2021/12/23 06:19:18;;;;;;;56.20;23.85;;;;;;;-1.58;100.00;101001.44;5014110;28;20121;-77
2021/12/23 06:21:43;;;;;;;46.85;22.23;;;;;;;-1.59;100.00;100999.69;5000027;28;20038;-77
2021/12/23 06:24:09;;;;;;;55.92;24.25;;;;;;;-1.55;100.00;100995.97;5005378;28;20179;-77
2021/12/23 06:26:34;;;;;;;52.60;22.40;;;;;;;-1.54;100.00;100995.06;5006260;28;20044;-77
2021/12/23 06:29:00;;;;;;;55.30;24.30;;;;;;;-1.50;100.00;100994.03;5003775;28;20049;-77
2021/12/23 06:31:25;;;;;;;50.47;22.38;;;;;;;-1.50;100.00;101010.16;4997519;28;20382;-77
2021/12/23 06:33:51;;;;;;;57.05;24.63;;;;;;;-1.51;100.00;100980.66;5005335;28;20079;-77
2021/12/23 06:36:17;;;;;;;55.60;22.17;;;;;;;-1.51;100.00;100986.03;5013535;28;20423;-77
2021/12/23 06:38:44;;;;;;;58.90;24.25;;;;;;;-1.51;100.00;100986.94;5010159;28;20029;-77
2021/12/23 06:41:10;;;;;;;52.50;22.35;;;;;;;-1.49;100.00;100979.72;5011709;28;20034;-77
2021/12/23 06:43:36;;;;;;;58.65;23.23;;;;;;;-1.50;100.00;100977.94;5009883;28;20046;-77
2021/12/23 06:46:03;;;;;;;60.78;24.50;;;;;;;-1.50;100.00;100961.81;4993351;28;20401;-77
2021/12/23 06:48:30;;;;;;;54.38;22.67;;;;;;;-1.48;100.00;100972.53;5015899;28;20397;-77
2021/12/23 06:50:57;;;;;;;56.95;22.35;;;;;;;-1.47;100.00;100955.50;5004788;28;20113;-77
2021/12/23 06:53:23;;;;;;;52.60;23.23;;;;;;;-1.45;100.00;100942.03;4980286;28;20069;-77
2021/12/23 06:55:52;;;;;;;51.75;22.88;;;;;;;-1.42;100.00;100956.25;5000177;28;20104;-77
2021/12/23 06:58:19;;;;;;;48.58;21.98;;;;;;;-1.42;100.00;100953.56;4996149;28;20470;-77
2021/12/23 07:00:45;;;;;;;54.97;23.02;;;;;;;-1.45;100.00;100945.59;4987953;28;20458;-77
2021/12/23 07:03:11;;;;;;;55.30;23.75;;;;;;;-1.47;100.00;100944.75;4992967;28;20137;-77
2021/12/23 07:05:36;;;;;;;52.25;22.83;;;;;;;-1.40;100.00;100957.09;5005603;28;20450;-77
2021/12/23 07:08:10;;;;;;;53.45;23.10;;;;;;;-1.43;100.00;100940.19;5002882;28;20038;-77
2021/12/23 07:10:36;;;;;;;51.10;21.63;;;;;;;-1.44;100.00;100946.47;5003550;28;20494;-77
2021/12/23 07:13:02;;;;;;;57.05;24.15;;;;;;;-1.37;100.00;100964.19;5002186;28;20034;-77
2021/12/23 07:15:29;;;;;;;55.10;24.27;;;;;;;-1.38;100.00;100963.28;4997983;28;20124;-77
2021/12/23 07:17:57;;;;;;;61.70;23.17;;;;;;;-1.38;100.00;100965.97;5009120;28;20519;-78
2021/12/23 07:20:24;;;;;;;58.42;24.33;;;;;;;-1.39;100.00;100956.19;4998962;28;20046;-77
2021/12/23 07:22:50;;;;;;;56.55;23.77;;;;;;;-1.35;100.00;100956.97;5002552;28;20433;-77
2021/12/23 07:25:16;;;;;;;57.03;23.33;;;;;;;-1.34;100.00;100946.19;5002259;28;20045;-78
2021/12/23 07:27:42;;;;;;;55.08;24.00;;;;;;;-1.32;100.00;100955.06;4998444;28;20391;-77
2021/12/23 07:30:10;;;;;;;54.28;24.95;;;;;;;-1.28;100.00;100955.84;4986624;28;20092;-77
2021/12/23 07:32:36;;;;;;;51.95;21.50;;;;;;;-1.25;100.00;100947.72;5002370;28;20074;-77
2021/12/23 07:35:02;;;;;;;54.33;23.75;;;;;;;-1.25;100.00;100936.97;4993856;28;20490;-77
2021/12/23 07:37:27;;;;;;;52.95;22.17;;;;;;;-1.25;100.00;100950.41;4996568;28;20026;-77
2021/12/23 07:39:54;;;;;;;49.80;21.92;;;;;;;-1.19;100.00;100935.94;5001738;28;20042;-79
2021/12/23 07:42:20;;;;;;;52.20;21.95;;;;;;;-1.24;100.00;100936.06;4999084;28;20041;-77
2021/12/23 07:44:46;;;;;;;56.53;23.20;;;;;;;-1.19;100.00;100941.31;5003584;28;20030;-78
2021/12/23 07:47:12;;;;;;;53.10;23.10;;;;;;;-1.20;100.00;100959.19;4999064;28;20390;-78
2021/12/23 07:49:39;;;;;;;47.95;22.45;;;;;;;-1.19;100.00;100949.34;4991043;28;20026;-78
2021/12/23 07:52:06;;;;;;;59.67;23.95;;;;;;;-1.14;100.00;100950.09;5015026;28;20040;-77
2021/12/23 07:54:32;;;;;;;55.38;23.35;;;;;;;-1.17;100.00;100948.38;5015302;28;20652;-78
2021/12/23 07:56:58;;;;;;;56.47;23.55;;;;;;;-1.10;100.00;100949.06;5014450;28;20553;-77
2021/12/23 07:59:24;;;;;;;50.65;22.60;;;;;;;-1.06;100.00;100948.06;4994099;28;20229;-77
2021/12/23 08:01:49;;;;;;;58.13;23.73;;;;;;;-1.05;100.00;100933.72;5004100;28;20034;-77
2021/12/23 08:04:15;;;;;;;50.55;22.75;;;;;;;-1.05;100.00;100936.41;5019007;28;20042;-77
2021/12/23 08:06:40;;;;;;;58.55;23.30;;;;;;;-1.06;100.00;100936.44;4984355;28;20046;-77
2021/12/23 08:09:06;;;;;;;55.03;22.25;;;;;;;-1.04;100.00;100938.16;4991066;28;20041;-77
2021/12/23 08:11:31;;;;;;;56.58;23.08;;;;;;;-1.01;100.00;100924.63;4995690;28;20650;-78
2021/12/23 08:13:56;;;;;;;51.05;22.25;;;;;;;-0.95;100.00;100935.19;5000822;28;20034;-78
2021/12/23 08:16:22;;;;;;;53.25;23.00;;;;;;;-0.97;100.00;100928.09;4998318;28;20557;-77
2021/12/23 08:18:47;;;;;;;52.20;22.20;;;;;;;-0.98;100.00;100911.09;5002144;28;20109;-77
2021/12/23 08:21:13;;;;;;;46.03;22.38;;;;;;;-0.91;100.00;100927.91;4992327;28;20026;-76
2021/12/23 08:23:38;;;;;;;55.75;24.25;;;;;;;-0.93;100.00;100921.72;4993953;28;20034;-76
2021/12/23 08:26:10;;;;;;;51.42;22.35;;;;;;;-0.90;100.00;100920.72;4992850;28;20053;-76
2021/12/23 08:28:37;;;;;;;51.83;24.05;;;;;;;-0.94;100.00;100922.63;5007554;28;20366;-76
2021/12/23 08:31:02;;;;;;;57.60;24.08;;;;;;;-0.96;100.00;100929.88;4991638;28;20111;-76
2021/12/23 08:33:28;;;;;;;56.83;23.77;;;;;;;-0.93;100.00;100932.47;5005199;28;20397;-77
2021/12/23 08:35:54;;;;;;;56.67;23.65;;;;;;;-0.89;100.00;100939.50;4975550;28;20046;-76
2021/12/23 08:38:20;;;;;;;48.95;22.10;;;;;;;-0.88;100.00;100937.69;5005726;28;20028;-76
2021/12/23 08:40:45;;;;;;;49.67;21.60;;;;;;;-0.92;100.00;100931.50;5001822;28;20125;-76
2021/12/23 08:43:12;;;;;;;53.10;24.08;;;;;;;-0.87;100.00;100917.94;4991216;28;20120;-76
2021/12/23 08:45:38;;;;;;;56.58;24.02;;;;;;;-0.80;100.00;100923.09;4997594;28;20040;-77
2021/12/23 08:48:04;;;;;;;55.08;23.83;;;;;;;-0.79;100.00;100918.59;5009505;28;20448;-77
2021/12/23 08:50:30;;;;;;;55.38;22.85;;;;;;;-0.83;100.00;100914.25;4983164;28;20112;-77
2021/12/23 08:52:56;;;;;;;58.78;24.05;;;;;;;-0.81;100.00;100898.94;5005200;28;20072;-77
2021/12/23 08:55:25;;;;;;;58.47;23.52;;;;;;;-0.76;100.00;100905.06;5008637;28;20057;-77
2021/12/23 08:57:51;;;;;;;55.05;24.25;;;;;;;-0.71;100.00;100900.41;5006763;28;20527;-77
2021/12/23 09:00:18;;;;;;;58.70;24.15;;;;;;;-0.72;100.00;100895.06;5008039;28;20030;-76
2021/12/23 09:02:46;;;;;;;56.88;24.48;;;;;;;-0.67;100.00;100893.13;4995276;28;20031;-77
2021/12/23 09:05:12;;;;;;;59.17;23.15;;;;;;;-0.70;100.00;100901.31;4997984;28;20034;-77
2021/12/23 09:07:38;;;;;;;53.25;22.25;;;;;;;-0.72;100.00;100885.22;4997907;28;20034;-77
2021/12/23 09:10:06;;;;;;;55.53;24.65;;;;;;;-0.62;100.00;100889.38;5006841;28;20060;-76
2021/12/23 09:12:31;;;;;;;54.95;23.15;;;;;;;-0.56;100.00;100886.50;5008159;28;20034;-77
2021/12/23 09:14:57;;;;;;;54.10;24.33;;;;;;;-0.54;100.00;100885.53;5004363;28;20394;-76
2021/12/23 09:17:22;;;;;;;57.17;24.05;;;;;;;-0.44;100.00;100887.88;5001305;28;20030;-76
2021/12/23 09:19:48;;;;;;;61.53;24.27;;;;;;;-0.47;100.00;100879.06;5007195;28;20042;-76
2021/12/23 09:22:14;;;;;;;55.83;24.48;;;;;;;-0.46;100.00;100886.16;4990490;28;20034;-76
2021/12/23 09:24:45;;;;;;;58.28;23.55;;;;;;;-0.51;100.00;100880.94;5003150;28;20421;-76
2021/12/23 09:27:34;;;;;;;61.67;24.05;;;;;;;-0.52;100.00;100887.25;5010806;28;20486;-75
2021/12/23 09:32:52;;;;;;;56.78;22.42;;;;;;;-0.37;100.00;100883.19;4991994;28;20120;-76
2021/12/23 09:35:21;;;;;;;59.95;24.38;;;;;;;-0.22;100.00;100877.28;4980595;28;20052;-76
2021/12/23 09:37:46;;;;;;;46.13;21.90;;;;;;;-0.23;100.00;100875.53;5007301;28;20065;-76
2021/12/23 09:40:12;;;;;;;53.63;23.60;;;;;;;-0.13;100.00;100877.88;5010762;28;20065;-76
2021/12/23 09:42:39;;;;;;;50.70;23.83;;;;;;;-0.07;100.00;100877.69;4995623;28;20030;-76
2021/12/23 09:45:10;;;;;;;59.78;23.88;;;;;;;-0.12;100.00;100869.75;4996524;28;20042;-77
2021/12/23 09:47:36;;;;;;;54.28;21.48;;;;;;;-0.05;100.00;100883.88;5004262;28;20042;-76
2021/12/23 09:50:08;;;;;;;52.92;22.95;;;;;;;-0.09;100.00;100880.44;5002492;28;20083;-76
2021/12/23 09:52:39;;;;;;;50.20;23.00;;;;;;;-0.01;100.00;100882.88;4996790;28;20053;-77
2021/12/23 09:55:06;;;;;;;51.92;22.00;;;;;;;0.06;100.00;100879.00;4995629;28;20393;-77
2021/12/23 09:57:32;;;;;;;59.08;24.25;;;;;;;0.03;100.00;100862.97;4998239;28;20042;-77
2021/12/23 09:59:58;;;;;;;55.80;23.65;;;;;;;0.07;100.00;100870.00;5002769;28;20076;-77
2021/12/23 10:02:24;;;;;;;51.78;23.35;;;;;;;0.12;100.00;100868.03;5000857;28;20470;-76
2021/12/23 10:04:50;;;;;;;58.97;23.80;;;;;;;0.08;100.00;100863.72;5009127;28;20057;-76
2021/12/23 10:07:16;;;;;;;52.75;23.73;;;;;;;0.13;100.00;100852.75;5009455;28;20042;-76
2021/12/23 10:10:10;;;;;;;51.25;22.52;;;;;;;0.20;100.00;100851.63;5001138;28;20026;-76
2021/12/23 10:32:12;;;;;;;53.13;23.40;;;;;;;0.37;100.00;100824.06;4999030;28;20173;-76
2021/12/23 10:37:22;;;;;;;58.35;24.10;;;;;;;0.41;100.00;100809.56;4994503;28;20030;-75
2021/12/23 10:39:52;;;;;;;60.28;23.30;;;;;;;0.50;100.00;100806.50;4989348;28;20026;-75
2021/12/23 10:42:27;;;;;;;56.45;22.73;;;;;;;0.52;100.00;100790.28;4985722;28;20593;-76
2021/12/23 10:45:06;;;;;;;52.72;24.02;;;;;;;0.55;100.00;100779.38;5014664;28;20066;-76
2021/12/23 10:47:56;;;;;;;58.17;24.02;;;;;;;0.57;100.00;100772.13;5001797;28;20053;-76
2021/12/23 10:50:49;;;;;;;56.85;22.52;;;;;;;0.59;100.00;100770.25;5004848;28;20089;-76
2021/12/23 10:54:10;;;;;;;61.80;25.40;;;;;;;0.64;100.00;100753.88;4994451;28;20026;-77
2021/12/23 10:59:30;;;;;;;56.00;23.65;;;;;;;0.71;100.00;100736.56;4997044;28;20436;-76
2021/12/23 11:02:10;;;;;;;62.22;24.52;;;;;;;0.69;100.00;100731.22;4994881;28;20036;-75
2021/12/23 11:04:51;;;;;;;57.35;22.92;;;;;;;0.73;100.00;100729.28;5009279;28;20037;-76
2021/12/23 11:07:24;;;;;;;62.50;26.27;;;;;;;0.78;100.00;100727.28;4993788;28;20049;-76
2021/12/23 11:09:59;;;;;;;;;;;;;;;0.79;100.00;100729.03;5004028;28;20052;-75
2021/12/23 11:37:39;;;;;;;64.18;25.30;;;;;;;1.39;100.00;100677.09;5001295;28;20041;-77
2021/12/23 11:43:02;;;;;;;55.70;23.02;;;;;;;1.43;100.00;100676.91;4994837;28;20089;-77
2021/12/23 11:45:17;;;;;;;57.90;23.95;;;;;;;1.49;100.00;100670.34;4993148;28;20045;-79
2021/12/23 11:47:45;;;;;;;64.40;25.67;;;;;;;1.59;100.00;100669.00;4994119;28;20505;-77
2021/12/23 11:50:18;;;;;;;60.55;23.85;;;;;;;1.70;100.00;100657.72;5005287;28;20044;-77
2021/12/23 11:52:45;;;;;;;59.25;24.15;;;;;;;1.77;100.00;100658.28;4995923;28;20390;-78
2021/12/23 11:55:10;;;;;;;58.80;24.95;;;;;;;1.85;100.00;100639.94;4996642;28;20065;-78
2021/12/23 11:57:38;;;;;;;61.22;25.25;;;;;;;1.96;100.00;100634.91;5007558;28;20069;-78
2021/12/23 12:00:15;;;;;;;56.42;23.88;;;;;;;1.95;100.00;100635.88;4993610;28;20473;-78
2021/12/23 12:02:42;;;;;;;55.78;24.08;;;;;;;2.05;100.00;100635.41;4979503;28;20050;-78